Time;durP1;ratioP1;P1;durP2;ratioP2;P2;SDS_P1;SDS_P2;PMS_P1;PMS_P2;Temp;Humidity;BMP_temperature;BMP_pressure;BME280_temperature;BME280_humidity;BME280_pressure;Samples;Min_cycle;Max_cycle;Signal;HPM_P1;HPM_P2
2023/10/21 00:00:54;;;;;;;13.83;5.03;;;;;;;18.21;59.30;94216.75;5090802;28;20208;-45
2023/10/21 00:03:20;;;;;;;10.30;4.60;;;;;;;18.07;59.47;94231.47;5090201;28;20605;-45
2023/10/21 00:05:48;;;;;;;12.87;5.87;;;;;;;18.12;59.63;94230.88;5091318;28;20185;-46
2023/10/21 00:08:16;;;;;;;9.23;4.93;;;;;;;18.07;59.89;94230.66;5090774;28;20200;-44
2023/10/21 00:10:42;;;;;;;9.00;5.03;;;;;;;18.01;60.05;94253.75;5091175;28;20209;-45
2023/10/21 00:13:10;;;;;;;12.10;4.80;;;;;;;18.00;60.80;94213.34;5090960;28;20181;-45
2023/10/21 00:15:37;;;;;;;11.10;5.20;;;;;;;17.98;61.24;94207.53;5090759;28;20280;-46
2023/10/21 00:18:03;;;;;;;9.80;5.27;;;;;;;17.98;61.26;94255.91;5090002;28;20615;-45
2023/10/21 00:20:30;;;;;;;9.77;5.20;;;;;;;17.88;61.38;94222.66;5090373;28;20229;-44
2023/10/21 00:22:58;;;;;;;12.10;4.97;;;;;;;17.87;61.39;94241.72;5090377;28;20196;-46
2023/10/21 00:25:28;;;;;;;7.40;5.40;;;;;;;17.90;61.22;94232.78;5091041;28;20627;-43
2023/10/21 00:27:55;;;;;;;10.57;5.10;;;;;;;17.88;61.16;94252.91;5090712;28;20265;-45
2023/10/21 00:30:22;;;;;;;14.73;4.93;;;;;;;17.85;61.29;94255.88;5093356;28;20215;-45
2023/10/21 00:32:49;;;;;;;9.67;5.83;;;;;;;17.88;62.17;94242.56;5091150;28;20225;-45
2023/10/21 00:35:16;;;;;;;13.97;5.43;;;;;;;17.79;62.00;94257.44;5090529;28;20190;-45
2023/10/21 00:37:43;;;;;;;14.90;6.30;;;;;;;17.74;62.05;94264.94;5090864;28;20193;-45
2023/10/21 00:40:12;;;;;;;11.77;5.73;;;;;;;17.71;62.87;94229.91;5090281;28;20190;-45
2023/10/21 00:42:40;;;;;;;10.40;5.03;;;;;;;17.65;62.84;94286.75;5090387;28;20212;-44
2023/10/21 00:45:09;;;;;;;11.40;4.97;;;;;;;17.56;62.79;94263.66;5090079;28;20186;-44
2023/10/21 00:47:36;;;;;;;8.70;5.30;;;;;;;17.58;63.55;94245.38;5090365;28;20652;-46
2023/10/21 00:50:03;;;;;;;13.50;5.53;;;;;;;17.59;63.41;94266.84;5089608;28;20213;-45
2023/10/21 00:52:31;;;;;;;11.60;5.03;;;;;;;17.37;63.50;94235.91;5089591;28;20532;-45
2023/10/21 00:55:02;;;;;;;10.00;5.13;;;;;;;17.55;63.73;94276.78;5089615;28;20635;-45
2023/10/21 00:57:29;;;;;;;12.40;5.37;;;;;;;17.46;63.80;94283.88;5090107;28;20205;-45
2023/10/21 00:59:59;;;;;;;12.60;5.73;;;;;;;17.46;64.27;94286.47;5089824;28;20198;-44
2023/10/21 01:02:26;;;;;;;11.23;6.37;;;;;;;17.43;64.27;94268.75;5089708;28;20679;-45
2023/10/21 01:04:54;;;;;;;11.73;5.40;;;;;;;17.43;64.13;94266.16;5089251;28;20197;-44
2023/10/21 01:07:20;;;;;;;15.13;5.23;;;;;;;17.42;64.03;94297.38;5089390;28;20254;-44
2023/10/21 01:09:47;;;;;;;19.87;5.87;;;;;;;17.19;64.23;94227.84;5089450;28;20185;-44
2023/10/21 01:12:14;;;;;;;11.50;4.90;;;;;;;17.42;64.26;94284.44;5089690;28;20634;-51
2023/10/21 01:14:41;;;;;;;10.00;5.00;;;;;;;17.42;64.15;94295.59;5092313;28;20204;-48
2023/10/21 01:17:10;;;;;;;10.27;4.80;;;;;;;17.34;64.31;94282.81;5098082;28;20303;-46
2023/10/21 01:19:37;;;;;;;14.10;5.20;;;;;;;17.43;64.64;94262.78;5089453;28;20224;-50
2023/10/21 01:22:04;;;;;;;15.73;5.50;;;;;;;17.30;64.27;94273.84;5089637;28;20193;-45
2023/10/21 01:24:32;;;;;;;8.07;4.57;;;;;;;17.27;64.45;94241.44;5091790;28;20193;-46
2023/10/21 01:26:59;;;;;;;6.47;4.30;;;;;;;17.30;64.44;94295.31;5090947;28;20263;-44
2023/10/21 01:29:26;;;;;;;10.43;4.93;;;;;;;17.34;64.62;94232.91;5089594;28;20190;-45
2023/10/21 01:31:53;;;;;;;8.03;5.50;;;;;;;17.36;64.71;94286.00;5089191;28;20217;-46
2023/10/21 01:34:20;;;;;;;9.80;4.80;;;;;;;17.19;64.51;94226.06;5089665;28;20561;-45
2023/10/21 01:36:59;;;;;;;7.90;4.17;;;;;;;17.24;64.96;94275.41;5087572;28;20232;-44
2023/10/21 01:39:26;;;;;;;8.43;5.13;;;;;;;17.21;65.15;94288.69;5088200;28;20191;-45
2023/10/21 01:41:57;;;;;;;11.27;4.47;;;;;;;16.13;65.34;94096.19;5087752;28;20688;-45
2023/10/21 01:44:23;;;;;;;10.13;4.50;;;;;;;17.20;64.75;94222.50;5089208;28;20190;-45
2023/10/21 01:46:50;;;;;;;8.03;4.13;;;;;;;17.23;64.47;94273.00;5089257;28;20190;-44
2023/10/21 01:49:18;;;;;;;7.17;4.40;;;;;;;17.21;64.33;94274.97;5089349;28;20189;-44
2023/10/21 01:51:44;;;;;;;10.43;4.27;;;;;;;17.30;64.36;94229.91;5089349;28;20280;-45
2023/10/21 01:54:11;;;;;;;9.23;4.57;;;;;;;17.37;64.05;94235.13;5090384;28;20186;-45
2023/10/21 01:56:38;;;;;;;6.53;4.07;;;;;;;17.38;64.10;94280.66;5089260;28;20182;-45
2023/10/21 01:59:08;;;;;;;7.27;3.90;;;;;;;17.39;64.11;94285.63;5089416;28;20193;-45
2023/10/21 02:01:35;;;;;;;7.30;5.47;;;;;;;17.39;64.10;94240.88;5089015;28;20600;-45
2023/10/21 02:04:05;;;;;;;11.30;4.60;;;;;;;17.38;64.13;94273.69;5092792;28;20189;-46
2023/10/21 02:06:31;;;;;;;8.57;4.30;;;;;;;17.34;63.99;94293.16;5092534;28;20594;-46
2023/10/21 02:09:00;;;;;;;12.40;4.37;;;;;;;17.35;64.58;94284.41;5092979;28;20675;-46
2023/10/21 02:11:31;;;;;;;10.50;4.37;;;;;;;17.28;64.67;94263.69;5091474;28;20741;-44
2023/10/21 02:13:57;;;;;;;9.13;4.33;;;;;;;17.23;65.05;94273.00;5092601;28;20194;-45
2023/10/21 02:16:26;;;;;;;12.30;4.83;;;;;;;17.22;64.95;94281.72;5092866;28;20330;-46
2023/10/21 02:18:58;;;;;;;8.37;4.27;;;;;;;17.20;65.55;94243.16;5092749;28;20563;-45
2023/10/21 02:21:25;;;;;;;8.70;5.23;;;;;;;17.14;65.73;94287.84;5092554;28;20197;-44
2023/10/21 02:23:55;;;;;;;12.50;4.57;;;;;;;17.06;65.51;94280.25;5092231;28;20190;-46
2023/10/21 02:26:22;;;;;;;12.60;4.70;;;;;;;17.01;65.57;94265.31;5092624;28;20319;-45
2023/10/21 02:28:48;;;;;;;12.13;5.07;;;;;;;16.98;65.89;94280.38;5091618;28;20201;-45
2023/10/21 02:31:15;;;;;;;12.53;5.00;;;;;;;17.00;65.96;94293.88;5092016;28;20190;-46
2023/10/21 02:33:43;;;;;;;11.13;4.37;;;;;;;17.01;66.05;94293.72;5092413;28;20209;-44
2023/10/21 02:36:10;;;;;;;9.27;4.97;;;;;;;17.00;66.53;94283.56;5092412;28;20212;-45
2023/10/21 02:38:37;;;;;;;9.57;5.13;;;;;;;16.92;66.55;94273.34;5092342;28;20224;-46
2023/10/21 02:41:05;;;;;;;7.90;3.90;;;;;;;16.87;66.82;94299.75;5092437;28;20197;-44
2023/10/21 02:43:33;;;;;;;11.97;4.87;;;;;;;16.92;66.81;94301.78;5092029;28;20259;-45
2023/10/21 02:46:08;;;;;;;13.80;5.03;;;;;;;16.83;66.90;94284.81;5092181;28;20268;-45
2023/10/21 02:48:35;;;;;;;15.30;4.50;;;;;;;16.84;67.18;94287.22;5092246;28;20580;-46
2023/10/21 02:51:09;;;;;;;8.17;4.73;;;;;;;16.81;67.21;94303.09;5092092;28;20225;-44
2023/10/21 02:53:37;;;;;;;6.07;4.13;;;;;;;16.67;67.38;94271.16;5091970;28;20185;-46
2023/10/21 02:56:05;;;;;;;10.87;4.80;;;;;;;16.71;67.81;94297.38;5092503;28;20178;-46
2023/10/21 02:58:32;;;;;;;12.07;5.50;;;;;;;16.62;67.58;94316.56;5092552;28;20182;-47
2023/10/21 03:01:02;;;;;;;17.70;4.60;;;;;;;16.56;68.57;94315.53;5094698;28;20205;-45
2023/10/21 03:03:29;;;;;;;8.33;4.30;;;;;;;16.59;69.08;94322.13;5093740;28;20181;-46
2023/10/21 03:05:55;;;;;;;9.37;4.60;;;;;;;16.44;68.76;94286.81;5106660;28;20230;-44
2023/10/21 03:08:24;;;;;;;4.87;3.87;;;;;;;16.47;69.08;94322.59;5105232;28;20178;-44
2023/10/21 03:10:50;;;;;;;8.43;5.23;;;;;;;16.43;69.73;94325.72;5091879;28;20583;-46
2023/10/21 03:13:17;;;;;;;11.30;4.70;;;;;;;16.44;69.72;94298.91;5091210;28;20221;-43
2023/10/21 03:15:44;;;;;;;7.37;4.40;;;;;;;16.44;69.81;94314.41;5091545;28;20596;-45
2023/10/21 03:18:11;;;;;;;7.17;4.67;;;;;;;16.43;69.70;94311.03;5091880;28;20198;-44
2023/10/21 03:20:38;;;;;;;6.60;3.80;;;;;;;16.41;69.56;94338.81;5091362;28;20665;-46
2023/10/21 03:23:05;;;;;;;7.50;4.40;;;;;;;16.42;69.80;94324.13;5091389;28;20557;-45
2023/10/21 03:25:33;;;;;;;9.43;4.50;;;;;;;16.47;69.89;94286.44;5091502;28;20185;-45
2023/10/21 03:28:00;;;;;;;9.53;4.67;;;;;;;16.37;69.95;94318.72;5091291;28;20285;-45
2023/10/21 03:30:30;;;;;;;5.80;4.30;;;;;;;16.39;70.55;94322.69;5090914;28;20596;-44
2023/10/21 03:32:58;;;;;;;15.17;4.77;;;;;;;16.31;70.59;94308.09;5091770;28;20576;-47
2023/10/21 03:35:24;;;;;;;8.37;4.30;;;;;;;16.24;70.45;94309.03;5091251;28;20634;-45
2023/10/21 03:37:51;;;;;;;11.50;4.83;;;;;;;16.30;70.22;94292.81;5091376;28;20205;-45
2023/10/21 03:40:18;;;;;;;11.30;4.67;;;;;;;16.35;69.92;94328.41;5090925;28;20190;-46
2023/10/21 03:42:46;;;;;;;7.50;4.10;;;;;;;16.40;69.39;94323.50;5091254;28;20196;-44
2023/10/21 03:45:13;;;;;;;12.60;4.63;;;;;;;16.39;69.27;94316.72;5091520;28;20569;-44
2023/10/21 03:47:40;;;;;;;10.33;4.43;;;;;;;16.44;69.04;94316.97;5091458;28;20186;-45
2023/10/21 03:50:08;;;;;;;8.27;4.37;;;;;;;16.40;69.29;94303.63;5091928;28;20312;-46
2023/10/21 03:52:35;;;;;;;9.77;4.80;;;;;;;16.41;69.33;94307.84;5101317;28;20251;-46
2023/10/21 03:55:04;;;;;;;25.23;4.10;;;;;;;16.37;69.59;94303.22;5091398;28;20189;-45
2023/10/21 03:57:31;;;;;;;9.33;4.80;;;;;;;16.34;69.98;94304.38;5090497;28;20204;-45
2023/10/21 04:00:01;;;;;;;11.70;4.70;;;;;;;16.31;69.99;94322.78;5091068;28;20189;-49
2023/10/21 04:02:27;;;;;;;9.53;4.70;;;;;;;16.27;70.13;94293.97;5090761;28;20233;-44
2023/10/21 04:04:54;;;;;;;11.53;4.63;;;;;;;16.29;69.72;94320.41;5090780;28;20186;-47
2023/10/21 04:07:21;;;;;;;16.03;5.27;;;;;;;16.27;69.61;94296.56;5090457;28;20190;-45
2023/10/21 04:09:48;;;;;;;13.87;3.97;;;;;;;16.18;68.62;94268.47;5090329;28;20227;-45
2023/10/21 04:12:14;;;;;;;11.03;4.33;;;;;;;16.45;68.31;94306.50;5090481;28;20209;-51
2023/10/21 04:14:41;;;;;;;5.77;4.13;;;;;;;16.53;68.31;94284.91;5090855;28;20649;-48
2023/10/21 04:17:10;;;;;;;11.47;5.23;;;;;;;16.56;68.17;94292.28;5090131;28;20190;-45
2023/10/21 04:19:37;;;;;;;6.97;4.23;;;;;;;16.59;68.29;94294.50;5090321;28;20177;-46
2023/10/21 04:22:04;;;;;;;14.10;4.17;;;;;;;16.55;68.49;94319.88;5090039;28;20212;-46
2023/10/21 04:24:30;;;;;;;9.00;4.60;;;;;;;16.54;68.93;94315.72;5090171;28;20196;-43
2023/10/21 04:26:57;;;;;;;6.73;4.70;;;;;;;16.49;68.85;94319.81;5090346;28;20194;-46
2023/10/21 04:29:24;;;;;;;9.27;4.27;;;;;;;16.43;69.19;94323.13;5089836;28;20189;-45
2023/10/21 04:31:52;;;;;;;12.30;4.40;;;;;;;16.37;69.28;94288.53;5090200;28;20198;-46
2023/10/21 04:34:20;;;;;;;8.50;4.47;;;;;;;16.26;69.33;94327.72;5089756;28;20186;-45
2023/10/21 04:36:47;;;;;;;10.03;4.47;;;;;;;16.35;69.07;94305.97;5089824;28;20197;-45
2023/10/21 04:39:16;;;;;;;13.43;4.80;;;;;;;16.36;68.77;94325.63;5089686;28;20561;-45
2023/10/21 04:41:43;;;;;;;7.37;4.83;;;;;;;16.39;68.53;94307.22;5090182;28;20614;-44
2023/10/21 04:44:10;;;;;;;7.27;4.27;;;;;;;16.43;68.69;94334.25;5089893;28;20189;-45
2023/10/21 04:46:37;;;;;;;9.73;4.53;;;;;;;16.42;68.64;94329.28;5089986;28;20190;-45
2023/10/21 04:49:04;;;;;;;10.53;4.50;;;;;;;16.40;68.99;94341.56;5089666;28;20186;-46
2023/10/21 04:51:33;;;;;;;8.07;4.50;;;;;;;16.41;68.99;94320.75;5089519;28;20221;-45
2023/10/21 04:53:59;;;;;;;10.47;4.37;;;;;;;16.37;68.73;94347.91;5090024;28;20639;-46
2023/10/21 04:56:27;;;;;;;10.00;5.03;;;;;;;16.37;69.25;94324.66;5089943;28;20309;-44
2023/10/21 04:58:54;;;;;;;10.10;4.57;;;;;;;16.36;69.22;94353.22;5089490;28;20193;-45
2023/10/21 05:01:21;;;;;;;6.93;4.63;;;;;;;16.39;69.15;94348.50;5089961;28;20198;-45
2023/10/21 05:03:48;;;;;;;11.30;5.10;;;;;;;16.36;69.50;94379.03;5089819;28;20181;-44
2023/10/21 05:06:15;;;;;;;8.03;5.23;;;;;;;16.32;70.08;94360.53;5089369;28;20197;-45
2023/10/21 05:08:43;;;;;;;10.70;4.60;;;;;;;16.29;70.08;94382.34;5089646;28;20261;-45
2023/10/21 05:11:10;;;;;;;17.00;5.37;;;;;;;16.26;70.22;94381.91;5089859;28;20197;-45
2023/10/21 05:13:37;;;;;;;11.47;4.73;;;;;;;16.26;71.14;94380.13;5089748;28;20236;-44
2023/10/21 05:16:03;;;;;;;12.03;5.70;;;;;;;16.24;71.36;94405.31;5089572;28;20573;-44
2023/10/21 05:18:30;;;;;;;7.53;4.80;;;;;;;16.14;71.62;94404.75;5089412;28;20271;-45
2023/10/21 05:20:57;;;;;;;9.93;5.73;;;;;;;16.10;71.83;94403.50;5089663;28;20189;-45
2023/10/21 05:23:24;;;;;;;9.73;5.30;;;;;;;16.10;72.20;94382.06;5089658;28;20213;-44
2023/10/21 05:25:52;;;;;;;11.87;5.10;;;;;;;16.13;72.03;94418.66;5089435;28;20186;-45
2023/10/21 05:28:19;;;;;;;8.70;5.13;;;;;;;16.14;71.99;94375.59;5089447;28;20282;-47
2023/10/21 05:30:46;;;;;;;12.73;5.30;;;;;;;16.17;71.86;94403.63;5089249;28;20186;-45
2023/10/21 05:33:13;;;;;;;10.00;5.00;;;;;;;16.26;71.88;94413.66;5089128;28;20228;-45
2023/10/21 05:35:40;;;;;;;11.60;4.80;;;;;;;16.26;71.72;94398.19;5089146;28;20671;-44
2023/10/21 05:38:07;;;;;;;11.60;4.70;;;;;;;16.28;71.56;94424.63;5091986;28;20400;-44
2023/10/21 05:40:35;;;;;;;11.13;4.93;;;;;;;16.38;71.35;94405.47;5093381;28;20185;-45
2023/10/21 05:43:04;;;;;;;13.67;5.03;;;;;;;16.45;71.14;94396.84;5093310;28;20206;-45
2023/10/21 05:45:31;;;;;;;6.20;4.87;;;;;;;16.53;70.47;94417.34;5093395;28;20197;-44
2023/10/21 05:47:58;;;;;;;12.20;6.07;;;;;;;16.63;70.44;94421.47;5094343;28;20196;-45
2023/10/21 05:50:25;;;;;;;13.60;5.63;;;;;;;16.72;70.19;94426.34;5094302;28;20222;-46
2023/10/21 05:52:53;;;;;;;15.40;5.97;;;;;;;16.74;69.83;94413.25;5094239;28;20600;-45
2023/10/21 05:55:20;;;;;;;13.93;5.67;;;;;;;16.94;69.41;94429.75;5094935;28;20209;-45
2023/10/21 05:57:46;;;;;;;11.47;4.93;;;;;;;17.04;69.16;94424.28;5095137;28;20205;-45
2023/10/21 06:00:16;;;;;;;8.33;4.30;;;;;;;17.17;69.06;94423.63;5099071;28;20232;-44
2023/10/21 06:02:42;;;;;;;11.63;4.57;;;;;;;17.36;67.97;94450.63;5096573;28;20260;-45
2023/10/21 06:05:09;;;;;;;10.57;5.00;;;;;;;17.42;67.47;94413.72;5094422;28;20193;-45
2023/10/21 06:07:36;;;;;;;13.03;5.33;;;;;;;17.67;66.57;94430.41;5093978;28;20724;-45
2023/10/21 06:10:04;;;;;;;6.33;4.33;;;;;;;17.85;65.44;94442.13;5093970;28;20633;-47
2023/10/21 06:12:32;;;;;;;12.57;4.90;;;;;;;18.07;64.98;94429.91;5093145;28;20194;-45
2023/10/21 06:14:59;;;;;;;9.23;5.00;;;;;;;18.37;64.18;94423.50;5095157;28;20186;-44
2023/10/21 06:17:28;;;;;;;13.10;4.77;;;;;;;18.70;63.22;94439.22;5095105;28;20612;-45
2023/10/21 06:19:54;;;;;;;11.47;4.70;;;;;;;19.09;62.05;94436.94;5093834;28;20186;-47
2023/10/21 06:22:22;;;;;;;8.80;4.20;;;;;;;19.53;60.09;94433.81;5092895;28;20193;-46
2023/10/21 06:24:49;;;;;;;11.80;5.10;;;;;;;19.94;59.19;94443.19;5093093;28;20296;-45
2023/10/21 06:27:15;;;;;;;15.27;4.80;;;;;;;20.35;57.77;94442.13;5094624;28;20227;-46
2023/10/21 06:29:42;;;;;;;11.47;4.23;;;;;;;20.71;56.82;94446.84;5093556;28;20568;-45
2023/10/21 06:32:10;;;;;;;14.77;4.80;;;;;;;21.03;56.30;94429.50;5092885;28;20672;-45
2023/10/21 06:34:38;;;;;;;7.32;4.30;;;;;;;21.39;54.81;94434.09;5092328;28;20229;-44
2023/10/21 06:37:04;;;;;;;10.65;3.97;;;;;;;21.68;54.45;94463.94;5092604;28;20197;-46
2023/10/21 06:39:31;;;;;;;12.25;4.35;;;;;;;21.90;54.13;94466.16;5092110;28;20190;-45
2023/10/21 06:41:58;;;;;;;9.10;3.88;;;;;;;22.15;52.91;94459.16;5092155;28;20181;-45
2023/10/21 06:44:25;;;;;;;10.65;4.05;;;;;;;22.24;52.82;94441.44;5091873;28;20189;-47
2023/10/21 06:46:52;;;;;;;9.50;4.10;;;;;;;22.48;52.27;94451.00;5092556;28;20190;-45
2023/10/21 06:49:19;;;;;;;10.18;3.78;;;;;;;22.75;51.92;94468.94;5090912;28;20190;-47
2023/10/21 06:51:49;;;;;;;7.03;3.63;;;;;;;22.99;51.16;94456.84;5091842;28;20248;-45
2023/10/21 06:54:17;;;;;;;11.25;4.22;;;;;;;23.25;50.64;94443.47;5091977;28;20244;-45
2023/10/21 06:56:45;;;;;;;11.00;4.50;;;;;;;23.50;50.14;94452.97;5091996;28;20424;-46
2023/10/21 06:59:13;;;;;;;9.50;3.67;;;;;;;23.74;49.31;94472.88;5092369;28;20184;-46
2023/10/21 07:01:39;;;;;;;7.38;3.83;;;;;;;23.89;49.53;94456.00;5092036;28;20190;-45
2023/10/21 07:04:10;;;;;;;13.38;3.38;;;;;;;23.94;48.58;94445.66;5092291;28;20260;-46
2023/10/21 07:06:38;;;;;;;6.75;4.45;;;;;;;24.04;47.75;94459.75;5091832;28;20194;-47
2023/10/21 07:09:10;;;;;;;8.80;3.92;;;;;;;24.17;47.92;94448.25;5092027;28;20300;-45
2023/10/21 07:11:38;;;;;;;10.02;4.45;;;;;;;24.38;47.15;94435.69;5092284;28;20182;-47
2023/10/21 07:14:05;;;;;;;17.58;4.43;;;;;;;24.52;46.40;94456.13;5092530;28;20213;-50
2023/10/21 07:16:31;;;;;;;8.00;4.13;;;;;;;24.64;45.78;94444.84;5092176;28;20185;-47
2023/10/21 07:18:58;;;;;;;8.85;4.53;;;;;;;24.57;45.80;94436.31;5094165;28;20219;-47
2023/10/21 07:21:26;;;;;;;10.52;4.50;;;;;;;24.53;45.38;94451.69;5101889;28;20577;-46
2023/10/21 07:23:53;;;;;;;11.48;4.60;;;;;;;24.76;45.58;94456.06;5109070;28;20205;-46
2023/10/21 07:26:22;;;;;;;12.15;5.07;;;;;;;24.90;44.43;94443.53;5104274;28;20194;-46
2023/10/21 07:28:49;;;;;;;14.27;4.30;;;;;;;24.95;44.93;94460.09;5092540;28;20254;-46
2023/10/21 07:31:15;;;;;;;8.40;4.00;;;;;;;25.10;44.89;94457.03;5091693;28;20750;-46
2023/10/21 07:33:42;;;;;;;14.32;5.03;;;;;;;25.29;43.98;94452.38;5091824;28;20213;-46
2023/10/21 07:36:09;;;;;;;10.27;5.32;;;;;;;25.13;43.47;94390.31;5091362;28;20568;-45
2023/10/21 07:38:36;;;;;;;12.18;6.22;;;;;;;25.26;43.19;94429.31;5091395;28;20600;-46
2023/10/21 07:41:10;;;;;;;15.95;6.18;;;;;;;25.42;43.64;94457.31;5091445;28;20200;-46
2023/10/21 07:43:38;;;;;;;11.80;4.63;;;;;;;25.53;43.44;94447.84;5091493;28;20205;-46
2023/10/21 07:46:05;;;;;;;13.93;5.43;;;;;;;25.50;43.06;94436.00;5091221;28;20680;-46
2023/10/21 07:48:32;;;;;;;12.38;6.47;;;;;;;25.40;43.45;94448.94;5091019;28;20519;-46
2023/10/21 07:50:59;;;;;;;15.32;7.25;;;;;;;25.31;42.91;94452.97;5091280;28;20228;-46
2023/10/21 07:53:25;;;;;;;22.95;6.85;;;;;;;25.25;43.28;94454.66;5091083;28;20307;-47
2023/10/21 07:55:53;;;;;;;16.40;6.60;;;;;;;25.31;43.34;94458.19;5091201;28;20194;-47
2023/10/21 07:58:20;;;;;;;16.27;5.38;;;;;;;25.22;43.83;94428.97;5091169;28;20205;-47
2023/10/21 08:00:48;;;;;;;12.57;5.82;;;;;;;25.28;43.89;94445.56;5090842;28;20201;-46
2023/10/21 08:03:15;;;;;;;10.23;5.47;;;;;;;25.17;43.65;94435.94;5090970;28;20201;-46
2023/10/21 08:05:42;;;;;;;10.38;5.68;;;;;;;24.88;44.15;94440.34;5090793;28;20225;-45
2023/10/21 08:08:10;;;;;;;15.45;5.30;;;;;;;24.78;44.84;94454.00;5090792;28;20520;-45
2023/10/21 08:10:37;;;;;;;17.55;6.47;;;;;;;24.51;45.15;94444.06;5091075;28;20194;-45
2023/10/21 08:13:04;;;;;;;12.40;5.53;;;;;;;24.38;45.53;94440.91;5090646;28;20810;-46
2023/10/21 08:15:31;;;;;;;29.45;6.18;;;;;;;24.34;45.70;94443.16;5090747;28;20193;-46
2023/10/21 08:18:00;;;;;;;15.65;6.82;;;;;;;24.31;45.67;94437.56;5090672;28;20197;-45
2023/10/21 08:20:27;;;;;;;14.50;5.80;;;;;;;24.26;46.43;94439.06;5090903;28;20669;-48
2023/10/21 08:22:54;;;;;;;16.13;5.68;;;;;;;24.35;46.21;94446.56;5091230;28;20630;-46
2023/10/21 08:25:21;;;;;;;14.75;5.25;;;;;;;24.29;46.04;94448.28;5090770;28;20611;-45
2023/10/21 08:27:48;;;;;;;11.15;5.32;;;;;;;24.34;45.65;94445.75;5090783;28;20189;-46
2023/10/21 08:30:15;;;;;;;12.85;5.10;;;;;;;24.31;46.25;94424.50;5090359;28;20193;-47
2023/10/21 08:32:42;;;;;;;11.45;5.07;;;;;;;24.34;46.18;94437.91;5090858;28;20181;-46
2023/10/21 08:35:10;;;;;;;12.05;5.75;;;;;;;24.38;46.57;94425.22;5090253;28;20240;-45
2023/10/21 08:37:38;;;;;;;13.27;5.07;;;;;;;24.44;46.53;94435.56;5090259;28;20653;-45
2023/10/21 08:40:10;;;;;;;16.02;5.40;;;;;;;24.46;46.80;94411.81;5090072;28;20186;-46
2023/10/21 08:42:38;;;;;;;11.65;4.72;;;;;;;24.63;46.30;94449.28;5089526;28;20723;-46
2023/10/21 08:45:09;;;;;;;12.95;4.68;;;;;;;24.68;46.04;94415.38;5089694;28;20222;-45
2023/10/21 08:47:36;;;;;;;9.25;4.72;;;;;;;24.76;45.24;94422.88;5090196;28;20189;-45
2023/10/21 08:50:04;;;;;;;17.60;5.55;;;;;;;24.86;44.08;94430.09;5089723;28;20233;-45
2023/10/21 08:52:34;;;;;;;13.57;4.20;;;;;;;24.94;44.30;94427.13;5089999;28;20193;-45
2023/10/21 08:55:05;;;;;;;12.00;4.60;;;;;;;25.07;43.13;94417.41;5090058;28;20213;-46
2023/10/21 08:57:32;;;;;;;12.93;4.10;;;;;;;25.12;42.55;94426.16;5089884;28;20188;-45
2023/10/21 08:59:59;;;;;;;8.48;3.88;;;;;;;25.20;40.71;94402.22;5089669;28;20220;-45
2023/10/21 09:02:27;;;;;;;11.27;4.50;;;;;;;25.32;40.11;94407.41;5092502;28;20182;-47
2023/10/21 09:04:54;;;;;;;8.15;3.85;;;;;;;25.67;36.55;94404.56;5092144;28;20246;-46
2023/10/21 09:07:20;;;;;;;16.15;3.90;;;;;;;25.86;34.72;94422.69;5090353;28;20231;-45
2023/10/21 09:10:14;;;;;;;6.28;2.67;;;;;;;26.08;33.67;94413.09;5090080;28;20182;-45
2023/10/21 09:12:43;;;;;;;10.82;3.20;;;;;;;26.24;33.22;94398.34;5089020;28;20599;-45
2023/10/21 09:15:12;;;;;;;11.88;3.42;;;;;;;26.40;33.21;94404.59;5089955;28;20209;-45
2023/10/21 09:17:39;;;;;;;9.60;3.15;;;;;;;26.60;32.92;94385.69;5090123;28;20189;-45
2023/10/21 09:20:09;;;;;;;11.30;2.72;;;;;;;26.28;32.90;94334.69;5090953;28;20541;-45
2023/10/21 09:22:36;;;;;;;9.57;3.40;;;;;;;26.85;32.85;94396.47;5090560;28;20200;-47
2023/10/21 09:25:14;;;;;;;14.20;2.95;;;;;;;27.04;32.19;94396.94;5089962;28;20576;-46
2023/10/21 09:27:42;;;;;;;8.82;3.85;;;;;;;27.16;30.88;94392.38;5089746;28;20266;-46
2023/10/21 09:30:15;;;;;;;5.78;2.85;;;;;;;27.23;31.47;94392.16;5089722;28;20210;-46
2023/10/21 09:32:42;;;;;;;12.90;3.10;;;;;;;27.34;31.23;94388.59;5089918;28;20236;-46
2023/10/21 09:35:23;;;;;;;6.43;2.42;;;;;;;27.32;32.14;94382.78;5089039;28;20312;-45
2023/10/21 09:37:50;;;;;;;9.00;3.20;;;;;;;27.48;32.20;94397.66;5089696;28;20197;-45
2023/10/21 09:40:21;;;;;;;10.85;3.38;;;;;;;27.59;31.65;94369.63;5089555;28;20778;-45
2023/10/21 09:42:52;;;;;;;7.63;2.83;;;;;;;27.69;30.83;94379.41;5089988;28;20190;-46
2023/10/21 09:45:19;;;;;;;6.97;3.13;;;;;;;27.79;30.35;94366.38;5089452;28;20572;-47
2023/10/21 09:47:46;;;;;;;12.77;3.72;;;;;;;27.69;31.48;94334.75;5089822;28;20628;-48
2023/10/21 09:50:15;;;;;;;12.05;2.88;;;;;;;27.89;30.75;94352.50;5089097;28;20575;-45
2023/10/21 09:52:52;;;;;;;13.80;3.85;;;;;;;27.93;29.35;94364.88;5089809;28;20197;-45
2023/10/21 09:55:25;;;;;;;18.33;3.65;;;;;;;28.00;29.58;94347.06;5089434;28;20228;-46
2023/10/21 09:58:02;;;;;;;22.58;4.13;;;;;;;28.01;29.70;94348.63;5089894;28;20629;-46
2023/10/21 10:00:29;;;;;;;15.93;3.17;;;;;;;28.03;29.51;94334.47;5088831;28;20699;-47
2023/10/21 10:02:57;;;;;;;15.45;2.83;;;;;;;27.90;30.19;94325.97;5089537;28;20288;-45
2023/10/21 10:05:24;;;;;;;8.25;3.30;;;;;;;28.21;29.86;94329.53;5088933;28;20194;-45
2023/10/21 10:07:52;;;;;;;6.40;2.42;;;;;;;28.26;29.58;94337.44;5089061;28;20498;-45
2023/10/21 10:10:25;;;;;;;20.23;3.83;;;;;;;28.29;30.89;94340.63;5089165;28;20224;-45
2023/10/21 10:13:01;;;;;;;8.20;3.30;;;;;;;28.25;30.35;94329.81;5087827;28;20194;-45
2023/10/21 10:15:32;;;;;;;18.10;3.40;;;;;;;28.29;30.70;94316.97;5091075;28;20231;-50
2023/10/21 10:18:01;;;;;;;12.13;2.80;;;;;;;28.34;30.70;94315.13;5090883;28;20204;-45
2023/10/21 10:20:28;;;;;;;12.75;3.03;;;;;;;28.31;30.53;94283.28;5090363;28;20463;-46
2023/10/21 10:23:00;;;;;;;13.75;3.35;;;;;;;28.34;30.86;94309.09;5090809;28;20197;-46
2023/10/21 10:25:36;;;;;;;9.57;2.97;;;;;;;28.36;30.31;94293.84;5095166;28;20189;-45
2023/10/21 10:28:07;;;;;;;12.00;3.08;;;;;;;28.33;29.90;94271.47;5093862;28;20281;-46
2023/10/21 10:30:38;;;;;;;13.20;3.00;;;;;;;28.35;29.90;94284.34;5093360;28;20194;-47
2023/10/21 10:33:13;;;;;;;13.57;3.92;;;;;;;28.43;30.11;94270.72;5093334;28;20194;-45
2023/10/21 10:35:46;;;;;;;11.52;3.00;;;;;;;28.41;30.20;94278.06;5092043;28;20252;-44
2023/10/21 10:38:24;;;;;;;14.20;3.60;;;;;;;28.41;29.43;94268.38;5093020;28;20816;-47
2023/10/21 10:40:54;;;;;;;14.77;3.75;;;;;;;28.42;28.93;94261.25;5092768;28;20188;-45
2023/10/21 10:43:23;;;;;;;11.38;3.50;;;;;;;28.52;29.21;94269.16;5093173;28;20181;-45
2023/10/21 10:45:51;;;;;;;18.67;3.28;;;;;;;28.47;28.97;94267.31;5092615;28;20204;-47
2023/10/21 10:48:18;;;;;;;14.75;4.70;;;;;;;28.52;29.43;94273.66;5093084;28;20181;-45
2023/10/21 10:50:46;;;;;;;13.90;2.83;;;;;;;28.56;29.93;94274.72;5093405;28;20225;-47
2023/10/21 10:53:13;;;;;;;15.32;4.03;;;;;;;28.59;30.17;94268.94;5095397;28;20189;-45
2023/10/21 10:55:42;;;;;;;16.73;4.05;;;;;;;28.64;29.57;94280.25;5092485;28;20649;-45
2023/10/21 10:58:11;;;;;;;18.65;4.20;;;;;;;28.61;29.49;94264.19;5092383;28;20628;-46
2023/10/21 11:00:39;;;;;;;10.85;3.20;;;;;;;28.56;29.73;94262.34;5092283;28;20360;-45
2023/10/21 11:03:07;;;;;;;7.85;3.40;;;;;;;28.61;29.58;94256.28;5092322;28;20285;-47
2023/10/21 11:05:37;;;;;;;16.83;3.33;;;;;;;28.56;29.51;94249.19;5091810;28;20243;-45
2023/10/21 11:08:09;;;;;;;17.65;3.67;;;;;;;28.52;29.52;94250.75;5091367;28;20259;-46
2023/10/21 11:10:43;;;;;;;14.57;2.92;;;;;;;28.43;29.99;94245.22;5091772;28;20192;-46
2023/10/21 11:13:11;;;;;;;15.60;3.33;;;;;;;28.55;29.88;94257.34;5091752;28;20759;-46
2023/10/21 11:15:44;;;;;;;10.40;3.25;;;;;;;28.64;30.00;94263.69;5091762;28;20214;-46
2023/10/21 11:18:13;;;;;;;13.77;3.10;;;;;;;28.58;30.38;94254.19;5091581;28;20212;-46
2023/10/21 11:20:47;;;;;;;12.77;3.90;;;;;;;28.59;30.00;94253.94;5091174;28;20192;-46
2023/10/21 11:23:16;;;;;;;12.02;2.95;;;;;;;28.49;30.48;94225.75;5092112;28;20313;-45
2023/10/21 11:25:44;;;;;;;11.52;3.75;;;;;;;28.60;30.33;94252.09;5091405;28;20182;-45
2023/10/21 11:28:14;;;;;;;8.07;2.90;;;;;;;28.66;30.47;94257.09;5091696;28;20197;-45
2023/10/21 11:30:42;;;;;;;10.85;3.55;;;;;;;28.70;29.75;94255.50;5091462;28;20251;-46
2023/10/21 11:33:10;;;;;;;12.60;3.55;;;;;;;28.74;30.17;94255.78;5091815;28;20182;-45